< Typhoon 200427 2004 Season Typhoon 200429 >
Typhoon 200428 (TALAS)
General InformationTrack Information on Google MapsDetailed Wind InformationAccess Analytics MapList of All Images || NewsDisaster Info.WeblogTrackbackTyphoon FrontResourceGoogle EarthGE AnimationAtom FeedGeoJSON
Detalied Best Track (Time Zone = UTC)
Year Month Day Hour Lat. Long. Pressure (hPa) Wind (kt) Class Image Chart
2004 12 9 00 5.9 177.8 1006 0 2 Image Chart
2004 12 9 06 6.0 175.9 1004 0 2 Image Chart
2004 12 9 12 6.6 174.2 1004 0 2 Image Chart
2004 12 9 18 7.2 172.4 1004 0 2 Image Chart
2004 12 10 00 7.6 170.9 1004 0 2 Image Chart
2004 12 10 06 7.7 169.4 1000 35 3 Image Chart
2004 12 10 12 8.0 168.0 998 40 3 Image Chart
2004 12 10 18 8.4 165.8 998 40 3 Image Chart
2004 12 11 00 8.6 164.0 998 40 3 Image Chart
2004 12 11 06 9.1 161.8 996 40 3 Image Chart
2004 12 11 12 9.5 159.3 996 40 3 Image Chart
2004 12 11 18 9.7 157.3 994 40 3 Image Chart
2004 12 12 00 9.9 155.4 994 40 3 Image Chart
2004 12 12 06 9.9 153.0 994 40 3 Image Chart
2004 12 12 12 9.9 150.5 994 40 3 Image Chart
2004 12 12 18 9.9 149.0 994 40 3 Image Chart
2004 12 13 00 9.9 147.1 994 40 3 Image Chart
2004 12 13 06 10.2 145.1 994 40 3 Image Chart
2004 12 13 12 10.4 143.6 994 40 3 Image Chart
2004 12 13 18 10.8 142.2 994 40 3 Image Chart
2004 12 14 00 11.2 140.5 994 40 3 Image Chart
2004 12 14 06 11.3 139.2 994 40 3 Image Chart
2004 12 14 12 11.4 138.2 994 40 3 Image Chart
2004 12 14 18 11.3 137.2 994 40 3 Image Chart
2004 12 15 00 11.5 136.3 994 40 3 Image Chart
2004 12 15 06 11.8 135.6 996 35 3 Image Chart
2004 12 15 12 11.8 134.6 1000 0 2 Image Chart
2004 12 15 18 11.7 133.7 1000 0 2 Image Chart
2004 12 16 00 11.9 132.8 1000 0 2 Image Chart
2004 12 16 06 12.2 132.4 1000 0 2 Image Chart
2004 12 16 12 12.5 132.0 1000 0 2 Image Chart
2004 12 16 18 12.8 131.8 998 35 3 Image Chart
2004 12 17 00 13.2 131.6 996 35 3 Image Chart
2004 12 17 06 13.5 131.4 996 35 3 Image Chart
2004 12 17 12 13.8 131.4 996 35 3 Image Chart
2004 12 17 18 14.0 131.3 996 35 3 Image Chart
2004 12 18 00 14.3 131.1 996 35 3 Image Chart
2004 12 18 06 15.2 131.0 996 35 3 Image Chart
2004 12 18 12 16.3 131.0 998 35 3 Image Chart
2004 12 18 18 17.1 131.1 998 35 3 Image Chart
2004 12 19 00 17.9 131.1 998 35 3 Image Chart
2004 12 19 06 18.3 130.6 1000 0 2 Image Chart
2004 12 19 12 19.1 130.5 1004 0 2 Image Chart
2004 12 19 18 19.4 130.8 1004 0 2 Image Chart
2004 12 20 00 19.6 131.7 1004 0 2 Image Chart
2004 12 20 06 19.8 133.0 1004 0 2 Image Chart
Japan Meteorological Agency Best Track Data | Correction Date : 2006-01-18
< Typhoon 200427 2004 Season Typhoon 200429 >

Help